sensor_id;sensor_type;location;lat;lon;timestamp;pressure;altitude;pressure_sealevel;temperature;humidity
57074;BME280;69035;54.392;18.574;2023-04-21T00:00:08;102221.47;;;7.88;61.73
57074;BME280;69035;54.392;18.574;2023-04-21T00:02:58;102211.81;;;7.85;60.90
57074;BME280;69035;54.392;18.574;2023-04-21T00:05:27;102208.19;;;7.80;61.17
57074;BME280;69035;54.392;18.574;2023-04-21T00:07:57;102214.28;;;7.79;61.91
57074;BME280;69035;54.392;18.574;2023-04-21T00:10:25;102208.88;;;7.73;62.02
57074;BME280;69035;54.392;18.574;2023-04-21T00:12:54;102212.34;;;7.71;62.09
57074;BME280;69035;54.392;18.574;2023-04-21T00:15:24;102213.31;;;7.76;62.20
57074;BME280;69035;54.392;18.574;2023-04-21T00:17:53;102210.75;;;7.79;61.86
57074;BME280;69035;54.392;18.574;2023-04-21T00:20:24;102210.75;;;7.79;62.20
57074;BME280;69035;54.392;18.574;2023-04-21T00:22:54;102210.84;;;7.82;61.13
57074;BME280;69035;54.392;18.574;2023-04-21T00:25:24;102205.47;;;7.76;62.15
57074;BME280;69035;54.392;18.574;2023-04-21T00:27:53;102214.25;;;7.78;62.47
57074;BME280;69035;54.392;18.574;2023-04-21T00:30:23;102216.84;;;7.76;61.96
57074;BME280;69035;54.392;18.574;2023-04-21T00:32:52;102226.28;;;7.71;62.00
57074;BME280;69035;54.392;18.574;2023-04-21T00:35:22;102225.44;;;7.72;62.30
57074;BME280;69035;54.392;18.574;2023-04-21T00:37:51;102215.81;;;7.71;62.83
57074;BME280;69035;54.392;18.574;2023-04-21T00:40:19;102215.69;;;7.65;62.49
57074;BME280;69035;54.392;18.574;2023-04-21T00:42:49;102213.06;;;7.65;62.85
57074;BME280;69035;54.392;18.574;2023-04-21T00:45:17;102215.63;;;7.63;62.65
57074;BME280;69035;54.392;18.574;2023-04-21T00:47:48;102211.28;;;7.64;62.11
57074;BME280;69035;54.392;18.574;2023-04-21T00:50:16;102210.41;;;7.63;62.31
57074;BME280;69035;54.392;18.574;2023-04-21T00:52:45;102208.69;;;7.65;62.71
57074;BME280;69035;54.392;18.574;2023-04-21T00:55:15;102205.25;;;7.66;62.25
57074;BME280;69035;54.392;18.574;2023-04-21T00:57:44;102203.31;;;7.59;62.32
57074;BME280;69035;54.392;18.574;2023-04-21T01:00:13;102201.59;;;7.60;62.98
57074;BME280;69035;54.392;18.574;2023-04-21T01:02:42;102203.28;;;7.58;63.35
57074;BME280;69035;54.392;18.574;2023-04-21T01:05:15;102201.44;;;7.54;62.48
57074;BME280;69035;54.392;18.574;2023-04-21T01:07:44;102192.69;;;7.52;63.33
57074;BME280;69035;54.392;18.574;2023-04-21T01:10:13;102191.78;;;7.51;63.25
57074;BME280;69035;54.392;18.574;2023-04-21T01:12:45;102197.84;;;7.48;63.14
57074;BME280;69035;54.392;18.574;2023-04-21T01:15:15;102197.66;;;7.42;63.41
57074;BME280;69035;54.392;18.574;2023-04-21T01:17:45;102192.25;;;7.35;63.37
57074;BME280;69035;54.392;18.574;2023-04-21T01:20:15;102192.91;;;7.26;63.71
57074;BME280;69035;54.392;18.574;2023-04-21T01:22:45;102186.78;;;7.25;63.93
57074;BME280;69035;54.392;18.574;2023-04-21T01:25:13;102188.34;;;7.19;65.33
57074;BME280;69035;54.392;18.574;2023-04-21T01:27:45;102189.19;;;7.18;64.01
57074;BME280;69035;54.392;18.574;2023-04-21T01:30:13;102185.53;;;7.11;64.37
57074;BME280;69035;54.392;18.574;2023-04-21T01:32:43;102178.38;;;7.04;63.61
57074;BME280;69035;54.392;18.574;2023-04-21T01:35:11;102178.31;;;7.01;64.28
57074;BME280;69035;54.392;18.574;2023-04-21T01:37:40;102190.38;;;6.97;64.60
57074;BME280;69035;54.392;18.574;2023-04-21T01:40:12;102171.59;;;6.78;64.91
57074;BME280;69035;54.392;18.574;2023-04-21T01:42:42;102191.84;;;6.87;64.95
57074;BME280;69035;54.392;18.574;2023-04-21T01:45:11;102191.69;;;6.81;65.17
57074;BME280;69035;54.392;18.574;2023-04-21T01:47:40;102186.22;;;6.72;65.39
57074;BME280;69035;54.392;18.574;2023-04-21T01:50:09;102185.28;;;6.70;65.22
57074;BME280;69035;54.392;18.574;2023-04-21T01:52:38;102181.75;;;6.68;65.24
57074;BME280;69035;54.392;18.574;2023-04-21T01:55:07;102175.56;;;6.64;66.03
57074;BME280;69035;54.392;18.574;2023-04-21T01:57:38;102174.59;;;6.60;65.91
57074;BME280;69035;54.392;18.574;2023-04-21T02:00:07;102175.34;;;6.56;65.67
57074;BME280;69035;54.392;18.574;2023-04-21T02:02:44;102184.81;;;6.53;66.18
57074;BME280;69035;54.392;18.574;2023-04-21T02:05:13;102178.66;;;6.51;65.66
57074;BME280;69035;54.392;18.574;2023-04-21T02:07:42;102184.81;;;6.53;66.14
57074;BME280;69035;54.392;18.574;2023-04-21T02:10:11;102177.88;;;6.53;66.17
57074;BME280;69035;54.392;18.574;2023-04-21T02:12:44;102179.66;;;6.54;66.33
57074;BME280;69035;54.392;18.574;2023-04-21T02:15:13;102179.56;;;6.51;66.21
57074;BME280;69035;54.392;18.574;2023-04-21T02:17:42;102181.13;;;6.46;66.88
57074;BME280;69035;54.392;18.574;2023-04-21T02:20:11;102183.75;;;6.46;66.48
57074;BME280;69035;54.392;18.574;2023-04-21T02:22:40;102183.72;;;6.44;66.19
57074;BME280;69035;54.392;18.574;2023-04-21T02:25:11;102182.91;;;6.47;67.20
57074;BME280;69035;54.392;18.574;2023-04-21T02:27:40;102184.69;;;6.48;66.20
57074;BME280;69035;54.392;18.574;2023-04-21T02:30:10;102186.41;;;6.48;66.82
57074;BME280;69035;54.392;18.574;2023-04-21T02:32:41;102180.31;;;6.47;66.44
57074;BME280;69035;54.392;18.574;2023-04-21T02:35:10;102180.25;;;6.45;66.40
57074;BME280;69035;54.392;18.574;2023-04-21T02:37:39;102181.88;;;6.42;66.69
57074;BME280;69035;54.392;18.574;2023-04-21T02:40:09;102185.34;;;6.41;67.21
57074;BME280;69035;54.392;18.574;2023-04-21T02:42:38;102183.56;;;6.40;67.02
57074;BME280;69035;54.392;18.574;2023-04-21T02:45:10;102181.94;;;6.43;66.74
57074;BME280;69035;54.392;18.574;2023-04-21T02:47:40;102189.81;;;6.45;66.74
57074;BME280;69035;54.392;18.574;2023-04-21T02:50:09;102186.34;;;6.46;66.27
57074;BME280;69035;54.392;18.574;2023-04-21T02:52:41;102188.28;;;6.52;66.91
57074;BME280;69035;54.392;18.574;2023-04-21T02:55:09;102185.56;;;6.49;67.11
57074;BME280;69035;54.392;18.574;2023-04-21T02:57:38;102189.00;;;6.48;66.84
57074;BME280;69035;54.392;18.574;2023-04-21T03:00:08;102182.09;;;6.48;66.83
57074;BME280;69035;54.392;18.574;2023-04-21T03:02:40;102186.44;;;6.49;67.22
57074;BME280;69035;54.392;18.574;2023-04-21T03:05:09;102166.31;;;6.45;66.44
57074;BME280;69035;54.392;18.574;2023-04-21T03:07:39;102175.97;;;6.48;67.00
57074;BME280;69035;54.392;18.574;2023-04-21T03:10:10;102170.69;;;6.46;67.20
57074;BME280;69035;54.392;18.574;2023-04-21T03:12:38;102166.13;;;6.39;66.81
57074;BME280;69035;54.392;18.574;2023-04-21T03:15:07;102158.91;;;6.30;67.48
57074;BME280;69035;54.392;18.574;2023-04-21T03:17:36;102169.41;;;6.32;67.31
57074;BME280;69035;54.392;18.574;2023-04-21T03:20:08;102170.34;;;6.34;67.22
57074;BME280;69035;54.392;18.574;2023-04-21T03:22:38;102165.97;;;6.33;66.97
57074;BME280;69035;54.392;18.574;2023-04-21T03:25:07;102170.31;;;6.32;67.30
57074;BME280;69035;54.392;18.574;2023-04-21T03:27:37;102168.53;;;6.31;67.19
57074;BME280;69035;54.392;18.574;2023-04-21T03:30:07;102160.56;;;6.26;68.11
57074;BME280;69035;54.392;18.574;2023-04-21T03:32:36;102158.81;;;6.27;67.13
57074;BME280;69035;54.392;18.574;2023-04-21T03:35:07;102157.88;;;6.23;68.23
57074;BME280;69035;54.392;18.574;2023-04-21T03:37:36;102156.09;;;6.22;67.76
57074;BME280;69035;54.392;18.574;2023-04-21T03:40:05;102156.91;;;6.21;67.89
57074;BME280;69035;54.392;18.574;2023-04-21T03:42:35;102157.75;;;6.20;68.11
57074;BME280;69035;54.392;18.574;2023-04-21T03:45:05;102161.19;;;6.18;67.85
57074;BME280;69035;54.392;18.574;2023-04-21T03:47:35;102158.47;;;6.15;68.14
57074;BME280;69035;54.392;18.574;2023-04-21T03:50:05;102153.06;;;6.08;68.49
57074;BME280;69035;54.392;18.574;2023-04-21T03:52:35;102158.44;;;6.13;67.81
57074;BME280;69035;54.392;18.574;2023-04-21T03:55:04;102158.28;;;6.08;69.49
57074;BME280;69035;54.392;18.574;2023-04-21T03:57:35;102158.28;;;6.08;67.82
57074;BME280;69035;54.392;18.574;2023-04-21T04:00:05;102167.97;;;6.13;67.92
57074;BME280;69035;54.392;18.574;2023-04-21T04:02:39;102168.94;;;6.15;67.69
57074;BME280;69035;54.392;18.574;2023-04-21T04:05:08;102161.13;;;6.16;67.41
57074;BME280;69035;54.392;18.574;2023-04-21T04:07:39;102171.84;;;6.25;67.60
57074;BME280;69035;54.392;18.574;2023-04-21T04:10:07;102170.16;;;6.27;68.53
57074;BME280;69035;54.392;18.574;2023-04-21T04:12:38;102163.25;;;6.30;68.26
57074;BME280;69035;54.392;18.574;2023-04-21T04:15:07;102168.78;;;6.40;67.94
57074;BME280;69035;54.392;18.574;2023-04-21T04:17:35;102169.66;;;6.39;69.85
57074;BME280;69035;54.392;18.574;2023-04-21T04:20:05;102163.84;;;6.50;67.57
57074;BME280;69035;54.392;18.574;2023-04-21T04:22:34;102167.50;;;6.56;67.51
57074;BME280;69035;54.392;18.574;2023-04-21T04:25:06;102167.72;;;6.64;67.32
57074;BME280;69035;54.392;18.574;2023-04-21T04:27:35;102170.66;;;6.76;66.75
57074;BME280;69035;54.392;18.574;2023-04-21T04:30:04;102169.13;;;6.83;66.35
57074;BME280;69035;54.392;18.574;2023-04-21T04:32:33;102175.69;;;7.01;66.18
57074;BME280;69035;54.392;18.574;2023-04-21T04:35:04;102175.13;;;7.12;66.02
57074;BME280;69035;54.392;18.574;2023-04-21T04:37:35;102169.34;;;7.26;65.73
57074;BME280;69035;54.392;18.574;2023-04-21T04:40:07;102180.13;;;7.38;66.15
57074;BME280;69035;54.392;18.574;2023-04-21T04:42:38;102173.50;;;7.53;64.92
57074;BME280;69035;54.392;18.574;2023-04-21T04:45:08;102184.34;;;7.68;65.10
57074;BME280;69035;54.392;18.574;2023-04-21T04:47:37;102175.88;;;7.78;64.66
57074;BME280;69035;54.392;18.574;2023-04-21T04:50:07;102178.81;;;7.92;63.65
57074;BME280;69035;54.392;18.574;2023-04-21T04:52:35;102179.13;;;8.08;63.76
57074;BME280;69035;54.392;18.574;2023-04-21T04:55:07;102172.47;;;8.22;63.14
57074;BME280;69035;54.392;18.574;2023-04-21T04:57:35;102163.97;;;8.34;62.59
57074;BME280;69035;54.392;18.574;2023-04-21T05:00:05;102168.78;;;8.52;62.11
57074;BME280;69035;54.392;18.574;2023-04-21T05:02:37;102169.06;;;8.67;62.11
57074;BME280;69035;54.392;18.574;2023-04-21T05:05:06;102168.44;;;8.81;60.81
57074;BME280;69035;54.392;18.574;2023-04-21T05:07:36;102170.47;;;8.94;61.29
57074;BME280;69035;54.392;18.574;2023-04-21T05:10:07;102171.56;;;9.08;60.92
57074;BME280;69035;54.392;18.574;2023-04-21T05:12:35;102171.75;;;9.18;60.02
57074;BME280;69035;54.392;18.574;2023-04-21T05:15:05;102171.91;;;9.29;60.19
57074;BME280;69035;54.392;18.574;2023-04-21T05:17:34;102172.97;;;9.38;59.49
57074;BME280;69035;54.392;18.574;2023-04-21T05:20:03;102174.00;;;9.48;59.97
57074;BME280;69035;54.392;18.574;2023-04-21T05:22:35;102165.44;;;9.60;58.73
57074;BME280;69035;54.392;18.574;2023-04-21T05:25:06;102171.75;;;9.70;59.03
57074;BME280;69035;54.392;18.574;2023-04-21T05:27:36;102151.59;;;9.69;58.58
57074;BME280;69035;54.392;18.574;2023-04-21T05:30:06;102165.06;;;9.93;57.59
57074;BME280;69035;54.392;18.574;2023-04-21T05:32:35;102165.22;;;10.06;58.15
57074;BME280;69035;54.392;18.574;2023-04-21T05:35:05;102160.91;;;10.09;57.84
57074;BME280;69035;54.392;18.574;2023-04-21T05:37:34;102169.84;;;10.21;57.26
57074;BME280;69035;54.392;18.574;2023-04-21T05:40:03;102170.75;;;10.26;57.60
57074;BME280;69035;54.392;18.574;2023-04-21T05:42:34;102169.22;;;10.40;57.26
57074;BME280;69035;54.392;18.574;2023-04-21T05:45:04;102165.88;;;10.52;56.40
57074;BME280;69035;54.392;18.574;2023-04-21T05:47:33;102167.53;;;10.45;56.68
57074;BME280;69035;54.392;18.574;2023-04-21T05:50:04;102178.03;;;10.45;56.43
57074;BME280;69035;54.392;18.574;2023-04-21T05:52:33;102167.63;;;10.53;56.97
57074;BME280;69035;54.392;18.574;2023-04-21T05:55:03;102168.56;;;10.58;56.36
57074;BME280;69035;54.392;18.574;2023-04-21T05:57:32;102164.16;;;10.54;56.40
57074;BME280;69035;54.392;18.574;2023-04-21T06:00:03;102169.44;;;10.57;56.22
57074;BME280;69035;54.392;18.574;2023-04-21T06:02:32;102166.88;;;10.65;56.49
57074;BME280;69035;54.392;18.574;2023-04-21T06:05:00;102165.94;;;10.60;55.77
57074;BME280;69035;54.392;18.574;2023-04-21T06:07:30;102159.88;;;10.66;55.45
57074;BME280;69035;54.392;18.574;2023-04-21T06:09:58;102162.56;;;10.70;55.81
57074;BME280;69035;54.392;18.574;2023-04-21T06:12:27;102159.97;;;10.73;55.77
57074;BME280;69035;54.392;18.574;2023-04-21T06:14:55;102162.66;;;10.79;54.94
57074;BME280;69035;54.392;18.574;2023-04-21T06:17:26;102160.13;;;10.90;55.47
57074;BME280;69035;54.392;18.574;2023-04-21T06:19:55;102157.53;;;10.93;54.12
57074;BME280;69035;54.392;18.574;2023-04-21T06:22:24;102152.34;;;10.98;54.82
57074;BME280;69035;54.392;18.574;2023-04-21T06:24:53;102155.03;;;11.04;54.09
57074;BME280;69035;54.392;18.574;2023-04-21T06:27:22;102144.59;;;11.15;54.67
57074;BME280;69035;54.392;18.574;2023-04-21T06:29:53;102148.22;;;11.26;54.68
57074;BME280;69035;54.392;18.574;2023-04-21T06:32:23;102146.53;;;11.34;53.44
57074;BME280;69035;54.392;18.574;2023-04-21T06:34:53;102143.06;;;11.40;53.89
57074;BME280;69035;54.392;18.574;2023-04-21T06:37:22;102146.59;;;11.42;53.79
57074;BME280;69035;54.392;18.574;2023-04-21T06:39:50;102147.47;;;11.44;52.89
57074;BME280;69035;54.392;18.574;2023-04-21T06:42:19;102143.94;;;11.42;52.86
57074;BME280;69035;54.392;18.574;2023-04-21T06:44:48;102147.47;;;11.46;53.99
57074;BME280;69035;54.392;18.574;2023-04-21T06:47:17;102140.44;;;11.42;53.70
57074;BME280;69035;54.392;18.574;2023-04-21T06:49:46;102150.06;;;11.40;53.08
57074;BME280;69035;54.392;18.574;2023-04-21T06:52:17;102154.53;;;11.48;53.11
57074;BME280;69035;54.392;18.574;2023-04-21T06:54:46;102153.63;;;11.43;53.32
57074;BME280;69035;54.392;18.574;2023-04-21T06:57:15;102158.09;;;11.55;53.64
57074;BME280;69035;54.392;18.574;2023-04-21T06:59:44;102155.53;;;11.66;53.31
57074;BME280;69035;54.392;18.574;2023-04-21T07:02:13;102150.28;;;11.71;52.35
57074;BME280;69035;54.392;18.574;2023-04-21T07:04:42;102137.22;;;11.83;52.24
57074;BME280;69035;54.392;18.574;2023-04-21T07:07:11;102137.22;;;11.86;51.86
57074;BME280;69035;54.392;18.574;2023-04-21T07:09:43;102142.44;;;11.75;52.13
57074;BME280;69035;54.392;18.574;2023-04-21T07:12:14;102147.78;;;11.89;52.13
57074;BME280;69035;54.392;18.574;2023-04-21T07:14:43;102148.78;;;12.03;51.32
57074;BME280;69035;54.392;18.574;2023-04-21T07:17:12;102149.69;;;12.12;51.56
57074;BME280;69035;54.392;18.574;2023-04-21T07:19:41;102155.88;;;12.23;51.48
57074;BME280;69035;54.392;18.574;2023-04-21T07:22:09;102151.50;;;12.25;50.46
57074;BME280;69035;54.392;18.574;2023-04-21T07:24:38;102160.28;;;12.24;50.40
57074;BME280;69035;54.392;18.574;2023-04-21T07:27:09;102155.94;;;12.37;51.04
57074;BME280;69035;54.392;18.574;2023-04-21T07:29:37;102154.19;;;12.36;49.45
57074;BME280;69035;54.392;18.574;2023-04-21T07:32:05;102155.09;;;12.41;50.72
57074;BME280;69035;54.392;18.574;2023-04-21T07:34:34;102148.06;;;12.46;50.57
57074;BME280;69035;54.392;18.574;2023-04-21T07:37:03;102147.19;;;12.41;50.93
57074;BME280;69035;54.392;18.574;2023-04-21T07:39:32;102152.47;;;12.52;50.56
57074;BME280;69035;54.392;18.574;2023-04-21T07:42:02;102148.97;;;12.50;50.08
57074;BME280;69035;54.392;18.574;2023-04-21T07:44:36;102148.97;;;12.54;50.19
57074;BME280;69035;54.392;18.574;2023-04-21T07:47:05;102152.50;;;12.55;49.24
57074;BME280;69035;54.392;18.574;2023-04-21T07:49:34;102150.75;;;12.54;49.43
57074;BME280;69035;54.392;18.574;2023-04-21T07:52:03;102150.69;;;12.46;49.88
57074;BME280;69035;54.392;18.574;2023-04-21T07:54:32;102145.44;;;12.43;49.71
57074;BME280;69035;54.392;18.574;2023-04-21T07:57:00;102139.31;;;12.53;49.61
57074;BME280;69035;54.392;18.574;2023-04-21T07:59:29;102144.63;;;12.61;50.29
57074;BME280;69035;54.392;18.574;2023-04-21T08:02:01;102142.91;;;12.76;49.68
57074;BME280;69035;54.392;18.574;2023-04-21T08:04:31;102142.91;;;12.88;49.38
57074;BME280;69035;54.392;18.574;2023-04-21T08:07:01;102143.81;;;13.02;49.20
57074;BME280;69035;54.392;18.574;2023-04-21T08:09:29;102146.44;;;13.05;49.15
57074;BME280;69035;54.392;18.574;2023-04-21T08:11:58;102143.81;;;13.08;48.98
57074;BME280;69035;54.392;18.574;2023-04-21T08:14:28;102138.53;;;13.04;48.69
57074;BME280;69035;54.392;18.574;2023-04-21T08:17:00;102138.53;;;13.10;48.87
57074;BME280;69035;54.392;18.574;2023-04-21T08:19:29;102139.44;;;13.12;49.18
57074;BME280;69035;54.392;18.574;2023-04-21T08:21:58;102137.66;;;13.16;49.47
57074;BME280;69035;54.392;18.574;2023-04-21T08:24:26;102142.06;;;13.32;48.82
57074;BME280;69035;54.392;18.574;2023-04-21T08:26:55;102139.47;;;13.40;48.73
57074;BME280;69035;54.392;18.574;2023-04-21T08:29:25;102139.41;;;13.29;48.28
57074;BME280;69035;54.392;18.574;2023-04-21T08:31:54;102143.84;;;13.24;48.26
57074;BME280;69035;54.392;18.574;2023-04-21T08:34:23;102146.44;;;13.16;48.04
57074;BME280;69035;54.392;18.574;2023-04-21T08:36:54;102138.56;;;13.19;48.48
57074;BME280;69035;54.392;18.574;2023-04-21T08:39:22;102143.84;;;13.22;47.92
57074;BME280;69035;54.392;18.574;2023-04-21T08:41:51;102135.91;;;13.33;48.33
57074;BME280;69035;54.392;18.574;2023-04-21T08:44:20;102120.09;;;13.35;48.32
57074;BME280;69035;54.392;18.574;2023-04-21T08:46:49;102129.78;;;13.39;48.41
57074;BME280;69035;54.392;18.574;2023-04-21T08:49:19;102127.13;;;13.45;48.02
57074;BME280;69035;54.392;18.574;2023-04-21T08:51:50;102128.00;;;13.56;47.64
57074;BME280;69035;54.392;18.574;2023-04-21T08:54:18;102126.22;;;13.66;48.00
57074;BME280;69035;54.392;18.574;2023-04-21T08:56:48;102128.88;;;13.65;47.54
57074;BME280;69035;54.392;18.574;2023-04-21T08:59:21;102132.38;;;13.79;47.44
57074;BME280;69035;54.392;18.574;2023-04-21T09:02:06;102129.72;;;13.85;46.96
57074;BME280;69035;54.392;18.574;2023-04-21T09:04:39;102118.25;;;13.88;46.47
57074;BME280;69035;54.392;18.574;2023-04-21T09:07:11;102120.00;;;13.97;46.39
57074;BME280;69035;54.392;18.574;2023-04-21T09:09:52;102120.00;;;13.87;46.49
57074;BME280;69035;54.392;18.574;2023-04-21T09:12:23;102117.31;;;14.01;46.91
57074;BME280;69035;54.392;18.574;2023-04-21T09:14:53;102103.19;;;14.08;45.88
57074;BME280;69035;54.392;18.574;2023-04-21T09:17:27;102111.03;;;14.27;45.89
57074;BME280;69035;54.392;18.574;2023-04-21T09:20:12;102111.03;;;14.27;45.30
57074;BME280;69035;54.392;18.574;2023-04-21T09:22:43;102111.84;;;14.40;45.65
57074;BME280;69035;54.392;18.574;2023-04-21T09:25:15;102116.25;;;14.42;45.56
57074;BME280;69035;54.392;18.574;2023-04-21T09:27:44;102117.13;;;14.44;45.69
57074;BME280;69035;54.392;18.574;2023-04-21T09:30:17;102110.09;;;14.42;45.26
57074;BME280;69035;54.392;18.574;2023-04-21T09:32:46;102104.81;;;14.40;46.30
57074;BME280;69035;54.392;18.574;2023-04-21T09:35:16;102113.63;;;14.41;45.99
57074;BME280;69035;54.392;18.574;2023-04-21T09:37:46;102112.63;;;14.60;46.11
57074;BME280;69035;54.392;18.574;2023-04-21T09:40:17;102117.91;;;14.68;45.95
57074;BME280;69035;54.392;18.574;2023-04-21T09:42:46;102112.66;;;14.54;46.34
57074;BME280;69035;54.392;18.574;2023-04-21T09:45:16;102106.53;;;14.51;46.04
57074;BME280;69035;54.392;18.574;2023-04-21T09:47:49;102098.53;;;14.64;46.38
57074;BME280;69035;54.392;18.574;2023-04-21T09:50:19;102110.84;;;14.70;46.66
57074;BME280;69035;54.392;18.574;2023-04-21T09:53:14;102095.97;;;14.43;45.57
57074;BME280;69035;54.392;18.574;2023-04-21T09:55:45;102103.88;;;14.51;45.98
57074;BME280;69035;54.392;18.574;2023-04-21T09:58:19;102103.06;;;14.36;46.10
57074;BME280;69035;54.392;18.574;2023-04-21T10:00:51;102101.19;;;14.55;46.67
57074;BME280;69035;54.392;18.574;2023-04-21T10:03:24;102094.13;;;14.57;45.65
57074;BME280;69035;54.392;18.574;2023-04-21T10:05:54;102101.13;;;14.75;45.57
57074;BME280;69035;54.392;18.574;2023-04-21T10:08:25;102094.03;;;14.76;45.63
57074;BME280;69035;54.392;18.574;2023-04-21T10:10:55;102098.28;;;14.95;45.47
57074;BME280;69035;54.392;18.574;2023-04-21T10:13:24;102094.69;;;15.04;44.91
57074;BME280;69035;54.392;18.574;2023-04-21T10:16:00;102094.66;;;15.13;43.72
57074;BME280;69035;54.392;18.574;2023-04-21T10:18:30;102091.06;;;15.19;44.82
57074;BME280;69035;54.392;18.574;2023-04-21T10:21:01;102099.03;;;15.16;44.08
57074;BME280;69035;54.392;18.574;2023-04-21T10:23:35;102092.03;;;15.10;43.98
57074;BME280;69035;54.392;18.574;2023-04-21T10:26:08;102096.47;;;15.04;43.80
57074;BME280;69035;54.392;18.574;2023-04-21T10:28:45;102097.38;;;15.06;43.23
57074;BME280;69035;54.392;18.574;2023-04-21T10:31:28;102089.31;;;15.16;43.04
57074;BME280;69035;54.392;18.574;2023-04-21T10:34:28;102085.66;;;15.30;41.69
57074;BME280;69035;54.392;18.574;2023-04-21T10:37:15;102078.34;;;15.57;41.75
57074;BME280;69035;54.392;18.574;2023-04-21T10:39:54;102078.34;;;15.58;39.96
57074;BME280;69035;54.392;18.574;2023-04-21T10:42:25;102076.53;;;15.60;40.44
57074;BME280;69035;54.392;18.574;2023-04-21T10:45:10;102075.69;;;15.55;38.58
57074;BME280;69035;54.392;18.574;2023-04-21T10:47:42;102058.81;;;15.67;39.37
57074;BME280;69035;54.392;18.574;2023-04-21T10:50:19;102058.81;;;15.64;38.49
57074;BME280;69035;54.392;18.574;2023-04-21T10:52:56;102060.38;;;15.85;38.12
57074;BME280;69035;54.392;18.574;2023-04-21T10:55:28;102052.38;;;15.90;37.82
57074;BME280;69035;54.392;18.574;2023-04-21T10:58:00;102049.44;;;16.11;38.65
57074;BME280;69035;54.392;18.574;2023-04-21T11:00:30;102048.28;;;16.29;38.12
57074;BME280;69035;54.392;18.574;2023-04-21T11:03:00;102049.84;;;16.46;37.69
57074;BME280;69035;54.392;18.574;2023-04-21T11:05:32;102044.28;;;16.61;37.46
57074;BME280;69035;54.392;18.574;2023-04-21T11:08:04;102049.69;;;16.56;37.24
57074;BME280;69035;54.392;18.574;2023-04-21T11:10:49;102045.13;;;16.66;34.62
57074;BME280;69035;54.392;18.574;2023-04-21T11:13:23;102044.13;;;16.73;34.81
57074;BME280;69035;54.392;18.574;2023-04-21T11:15:59;102036.09;;;16.77;34.92
57074;BME280;69035;54.392;18.574;2023-04-21T11:18:38;102036.91;;;16.80;34.32
57074;BME280;69035;54.392;18.574;2023-04-21T11:21:09;102034.16;;;16.89;35.76
57074;BME280;69035;54.392;18.574;2023-04-21T11:23:39;102031.53;;;16.85;34.67
57074;BME280;69035;54.392;18.574;2023-04-21T11:26:32;102028.72;;;16.96;34.45
57074;BME280;69035;54.392;18.574;2023-04-21T11:29:02;102016.50;;;16.84;35.70
57074;BME280;69035;54.392;18.574;2023-04-21T11:31:32;102022.66;;;16.87;35.81
57074;BME280;69035;54.392;18.574;2023-04-21T11:34:03;102029.66;;;16.93;35.41
57074;BME280;69035;54.392;18.574;2023-04-21T11:36:33;102031.00;;;16.63;35.66
57074;BME280;69035;54.392;18.574;2023-04-21T11:39:05;102024.16;;;16.48;35.53
57074;BME280;69035;54.392;18.574;2023-04-21T11:41:40;102026.06;;;16.38;35.03
57074;BME280;69035;54.392;18.574;2023-04-21T11:44:09;102023.63;;;16.24;35.41
57074;BME280;69035;54.392;18.574;2023-04-21T11:46:43;102021.81;;;16.26;34.71
57074;BME280;69035;54.392;18.574;2023-04-21T11:49:13;102018.00;;;16.46;36.20
57074;BME280;69035;54.392;18.574;2023-04-21T11:51:43;102017.09;;;16.47;35.02
57074;BME280;69035;54.392;18.574;2023-04-21T11:54:13;102021.06;;;16.19;35.64
57074;BME280;69035;54.392;18.574;2023-04-21T11:56:46;102014.19;;;16.03;36.08
57074;BME280;69035;54.392;18.574;2023-04-21T11:59:16;102020.34;;;16.07;37.11
57074;BME280;69035;54.392;18.574;2023-04-21T12:01:47;102006.81;;;16.25;37.49
57074;BME280;69035;54.392;18.574;2023-04-21T12:04:16;102010.19;;;16.35;37.46
57074;BME280;69035;54.392;18.574;2023-04-21T12:06:54;102006.69;;;16.33;37.18
57074;BME280;69035;54.392;18.574;2023-04-21T12:09:23;102000.53;;;16.31;37.53
57074;BME280;69035;54.392;18.574;2023-04-21T12:11:55;101993.19;;;16.50;37.80
57074;BME280;69035;54.392;18.574;2023-04-21T12:14:25;101993.91;;;16.58;38.00
57074;BME280;69035;54.392;18.574;2023-04-21T12:16:54;101996.75;;;16.47;37.11
57074;BME280;69035;54.392;18.574;2023-04-21T12:19:24;101995.03;;;16.43;37.78
57074;BME280;69035;54.392;18.574;2023-04-21T12:22:06;101987.88;;;16.50;38.08
57074;BME280;69035;54.392;18.574;2023-04-21T12:24:35;101988.56;;;16.61;38.39
57074;BME280;69035;54.392;18.574;2023-04-21T12:27:06;101985.72;;;16.73;38.04
57074;BME280;69035;54.392;18.574;2023-04-21T12:29:35;101977.88;;;16.64;37.03
57074;BME280;69035;54.392;18.574;2023-04-21T12:32:05;101988.09;;;16.36;34.76
57074;BME280;69035;54.392;18.574;2023-04-21T12:34:34;101983.66;;;16.35;36.08
57074;BME280;69035;54.392;18.574;2023-04-21T12:37:03;101982.25;;;16.12;37.49
57074;BME280;69035;54.392;18.574;2023-04-21T12:39:32;101989.13;;;16.26;37.51
57074;BME280;69035;54.392;18.574;2023-04-21T12:42:02;101989.13;;;16.26;38.27
57074;BME280;69035;54.392;18.574;2023-04-21T12:44:33;101986.59;;;16.18;38.85
57074;BME280;69035;54.392;18.574;2023-04-21T12:47:02;101983.78;;;16.27;38.69
57074;BME280;69035;54.392;18.574;2023-04-21T12:49:31;101984.19;;;15.99;38.00
57074;BME280;69035;54.392;18.574;2023-04-21T12:52:00;101975.66;;;15.76;39.54
57074;BME280;69035;54.392;18.574;2023-04-21T12:54:31;101967.06;;;15.57;39.86
57074;BME280;69035;54.392;18.574;2023-04-21T12:57:01;101958.41;;;15.42;40.26
57074;BME280;69035;54.392;18.574;2023-04-21T12:59:29;101959.16;;;15.50;40.55
57074;BME280;69035;54.392;18.574;2023-04-21T13:02:01;101958.22;;;15.56;40.95